createdAt,value
2023-02-02T00:00:23.129Z,7.73
2023-02-02T00:02:51.630Z,7.61
2023-02-02T00:05:21.712Z,7.44
2023-02-02T00:07:51.554Z,7.24
2023-02-02T00:10:20.188Z,7.03
2023-02-02T00:12:48.628Z,6.84
2023-02-02T00:15:17.311Z,6.68
2023-02-02T00:17:45.698Z,6.55
2023-02-02T00:20:14.318Z,6.44
2023-02-02T00:22:44.146Z,6.34
2023-02-02T00:25:12.738Z,6.26
2023-02-02T00:27:41.156Z,6.21
2023-02-02T00:30:11.786Z,6.20
2023-02-02T00:32:40.794Z,6.20
2023-02-02T00:35:10.428Z,6.21
2023-02-02T00:37:38.852Z,6.24
2023-02-02T00:40:11.032Z,6.28
2023-02-02T00:42:39.441Z,6.33
2023-02-02T00:45:17.350Z,6.37
2023-02-02T00:47:47.978Z,6.44
2023-02-02T00:50:19.951Z,6.50
2023-02-02T00:52:49.341Z,6.56
2023-02-02T00:55:19.772Z,6.63
2023-02-02T00:57:48.239Z,6.70
2023-02-02T01:00:20.887Z,6.75
2023-02-02T01:02:49.350Z,6.83
2023-02-02T01:05:18.186Z,6.88
2023-02-02T01:07:47.820Z,6.94
2023-02-02T01:10:20.082Z,6.97
2023-02-02T01:12:48.483Z,7.03
2023-02-02T01:15:17.499Z,7.05
2023-02-02T01:17:46.066Z,7.09
2023-02-02T01:20:20.949Z,7.09
2023-02-02T01:22:50.616Z,7.09
2023-02-02T01:25:20.785Z,7.08
2023-02-02T01:27:49.159Z,7.07
2023-02-02T01:32:48.991Z,6.99
2023-02-02T01:35:17.736Z,6.99
2023-02-02T01:37:46.104Z,6.99
2023-02-02T01:40:15.387Z,6.99
2023-02-02T01:42:45.141Z,6.99
2023-02-02T01:45:27.108Z,7.01
2023-02-02T01:47:59.337Z,7.03
2023-02-02T01:50:32.907Z,7.08
2023-02-02T01:53:03.609Z,7.12
2023-02-02T01:55:33.989Z,7.17
2023-02-02T01:58:08.054Z,7.20
2023-02-02T02:00:37.148Z,7.26
2023-02-02T02:03:09.563Z,7.29
2023-02-02T02:05:43.352Z,7.32
2023-02-02T02:08:18.323Z,7.36
2023-02-02T02:10:46.869Z,7.39
2023-02-02T02:13:17.785Z,7.43
2023-02-02T02:16:11.404Z,7.43
2023-02-02T02:18:51.556Z,7.41
2023-02-02T02:22:02.986Z,7.39
2023-02-02T02:25:45.755Z,7.33
2023-02-02T02:29:01.716Z,7.25
2023-02-02T02:32:19.052Z,7.20
2023-02-02T02:34:56.298Z,7.15
2023-02-02T02:37:39.742Z,7.14
2023-02-02T02:40:20.895Z,7.17
2023-02-02T02:42:54.734Z,7.20
2023-02-02T02:45:25.321Z,7.23
2023-02-02T02:47:56.158Z,7.25
2023-02-02T02:50:24.696Z,7.25
2023-02-02T02:53:01.591Z,7.22
2023-02-02T02:55:37.372Z,7.20
2023-02-02T02:58:11.907Z,7.17
2023-02-02T03:00:55.183Z,7.13
2023-02-02T03:03:58.592Z,7.09
2023-02-02T03:06:38.331Z,7.05
2023-02-02T03:09:11.301Z,7.02
2023-02-02T03:11:39.775Z,7.00
2023-02-02T03:14:09.792Z,6.97
2023-02-02T03:16:38.469Z,6.97
2023-02-02T03:19:09.451Z,6.96
2023-02-02T03:21:37.901Z,6.96
2023-02-02T03:24:07.068Z,6.95
2023-02-02T03:26:36.290Z,6.96
2023-02-02T03:29:05.203Z,6.97
2023-02-02T03:31:33.677Z,7.00
2023-02-02T03:34:02.138Z,7.01
2023-02-02T03:36:31.911Z,7.05
2023-02-02T03:39:00.302Z,7.09
2023-02-02T03:41:28.754Z,7.13
2023-02-02T03:43:57.138Z,7.17
2023-02-02T03:46:25.577Z,7.21
2023-02-02T03:48:53.939Z,7.26
2023-02-02T03:51:22.314Z,7.30
2023-02-02T03:53:52.075Z,7.34
2023-02-02T03:56:20.995Z,7.39
2023-02-02T03:58:49.369Z,7.43
2023-02-02T04:01:17.918Z,7.45
2023-02-02T04:03:47.069Z,7.46
2023-02-02T04:06:15.420Z,7.45
2023-02-02T04:08:43.780Z,7.44
2023-02-02T04:11:13.680Z,7.42
2023-02-02T04:13:43.476Z,7.38
2023-02-02T04:16:13.399Z,7.35
2023-02-02T04:18:41.894Z,7.32
2023-02-02T04:21:10.927Z,7.28
2023-02-02T04:23:39.367Z,7.25
2023-02-02T04:26:07.827Z,7.22
2023-02-02T04:28:37.890Z,7.18
2023-02-02T04:31:06.503Z,7.16
2023-02-02T04:33:36.440Z,7.13
2023-02-02T04:36:05.730Z,7.13
2023-02-02T04:38:34.113Z,7.14
2023-02-02T04:41:08.924Z,7.15
2023-02-02T04:43:39.935Z,7.18
2023-02-02T04:46:08.553Z,7.20
2023-02-02T04:48:37.471Z,7.24
2023-02-02T04:51:09.083Z,7.27
2023-02-02T04:53:37.582Z,7.31
2023-02-02T04:56:10.776Z,7.35
2023-02-02T04:58:40.886Z,7.37
2023-02-02T05:01:14.624Z,7.39
2023-02-02T05:03:43.377Z,7.42
2023-02-02T05:06:14.697Z,7.44
2023-02-02T05:08:44.597Z,7.46
2023-02-02T05:11:15.343Z,7.48
2023-02-02T05:13:49.000Z,7.51
2023-02-02T05:16:18.064Z,7.54
2023-02-02T05:18:51.484Z,7.57
2023-02-02T05:21:20.447Z,7.60
2023-02-02T05:23:48.911Z,7.61
2023-02-02T05:26:21.771Z,7.64
2023-02-02T05:28:51.896Z,7.66
2023-02-02T05:31:21.053Z,7.67
2023-02-02T05:33:49.543Z,7.67
2023-02-02T05:36:18.021Z,7.67
2023-02-02T05:38:46.433Z,7.64
2023-02-02T05:41:14.816Z,7.62
2023-02-02T05:43:43.253Z,7.60
2023-02-02T05:46:13.366Z,7.57
2023-02-02T05:48:42.056Z,7.54
2023-02-02T05:51:17.171Z,7.52
2023-02-02T05:53:46.105Z,7.50
2023-02-02T05:56:15.818Z,7.47
2023-02-02T05:58:47.317Z,7.46
2023-02-02T06:01:19.086Z,7.45
2023-02-02T06:03:47.623Z,7.44
2023-02-02T06:06:16.125Z,7.43
2023-02-02T06:08:44.579Z,7.43
2023-02-02T06:11:14.179Z,7.42
2023-02-02T06:13:45.579Z,7.43
2023-02-02T06:16:14.772Z,7.42
2023-02-02T06:18:45.211Z,7.43
2023-02-02T06:21:14.149Z,7.41
2023-02-02T06:23:45.714Z,7.39
2023-02-02T06:26:14.202Z,7.39
2023-02-02T06:28:43.107Z,7.38
2023-02-02T06:31:13.474Z,7.37
2023-02-02T06:33:43.251Z,7.39
2023-02-02T06:36:11.683Z,7.42
2023-02-02T06:38:40.142Z,7.45
2023-02-02T06:41:08.509Z,7.48
2023-02-02T06:43:36.918Z,7.53
2023-02-02T06:46:05.631Z,7.57
2023-02-02T06:48:34.064Z,7.60
2023-02-02T06:51:05.568Z,7.65
2023-02-02T06:53:35.320Z,7.73
2023-02-02T06:56:05.836Z,7.79
2023-02-02T06:58:35.181Z,7.89
2023-02-02T07:01:05.467Z,7.97
2023-02-02T07:03:35.195Z,8.04
2023-02-02T07:06:15.593Z,8.10
2023-02-02T07:08:44.728Z,8.15
2023-02-02T07:11:16.631Z,8.18
2023-02-02T07:13:46.239Z,8.23
2023-02-02T07:16:15.569Z,8.27
2023-02-02T07:18:44.971Z,8.30
2023-02-02T07:21:20.579Z,8.34
2023-02-02T07:23:49.794Z,8.39
2023-02-02T07:26:20.213Z,8.43
2023-02-02T07:28:49.260Z,8.49
2023-02-02T07:31:20.342Z,8.52
2023-02-02T07:33:49.987Z,8.59
2023-02-02T07:36:21.903Z,8.60
2023-02-02T07:38:53.865Z,8.62
2023-02-02T07:41:22.659Z,8.65
2023-02-02T07:43:51.725Z,8.68
2023-02-02T07:46:21.290Z,8.69
2023-02-02T07:48:50.031Z,8.69
2023-02-02T07:51:20.055Z,8.67
2023-02-02T07:53:50.757Z,8.67
2023-02-02T07:56:21.912Z,8.65
2023-02-02T07:58:52.900Z,8.64
2023-02-02T08:01:23.104Z,8.63
2023-02-02T08:03:53.133Z,8.67
2023-02-02T08:06:25.858Z,8.74
2023-02-02T08:08:54.502Z,8.78
2023-02-02T08:11:25.282Z,8.81
2023-02-02T08:13:56.436Z,8.83
2023-02-02T08:16:26.364Z,8.82
2023-02-02T08:18:55.115Z,8.81
2023-02-02T08:21:25.543Z,8.79
2023-02-02T08:23:55.233Z,8.75
2023-02-02T08:26:26.329Z,8.72
2023-02-02T08:28:56.960Z,8.70
2023-02-02T08:31:29.447Z,8.72
2023-02-02T08:33:59.076Z,8.78
2023-02-02T08:36:31.571Z,8.85
2023-02-02T08:39:03.261Z,8.91
2023-02-02T08:41:32.622Z,8.99
2023-02-02T08:44:01.166Z,9.10
2023-02-02T08:46:29.787Z,9.21
2023-02-02T08:48:58.286Z,9.30
2023-02-02T08:51:28.149Z,9.38
2023-02-02T08:53:56.641Z,9.43
2023-02-02T08:56:25.185Z,9.44
2023-02-02T08:58:55.685Z,9.50
2023-02-02T09:01:27.022Z,9.57
2023-02-02T09:03:56.684Z,9.60
2023-02-02T09:06:32.054Z,9.65
2023-02-02T09:09:01.021Z,9.73
2023-02-02T09:11:30.146Z,9.78
2023-02-02T09:14:01.170Z,9.84
2023-02-02T09:16:30.439Z,9.94
2023-02-02T09:18:59.090Z,10.04
2023-02-02T09:21:29.350Z,10.09
2023-02-02T09:23:57.833Z,10.15
2023-02-02T09:26:29.201Z,10.19
2023-02-02T09:29:01.874Z,10.26
2023-02-02T09:31:31.926Z,10.31
2023-02-02T09:34:03.452Z,10.35
2023-02-02T09:36:34.356Z,10.35
2023-02-02T09:39:03.471Z,10.36
2023-02-02T09:42:08.685Z,10.32
2023-02-02T09:44:58.189Z,10.25
2023-02-02T09:47:53.229Z,10.23
2023-02-02T09:50:38.377Z,10.23
2023-02-02T09:53:19.055Z,10.26
2023-02-02T09:55:51.384Z,10.34
2023-02-02T09:58:23.939Z,10.34
2023-02-02T10:01:00.797Z,10.32
2023-02-02T10:03:37.683Z,10.33
2023-02-02T10:06:21.528Z,10.31
2023-02-02T10:08:57.253Z,10.35
2023-02-02T10:11:35.380Z,10.45
2023-02-02T10:14:10.453Z,10.58
2023-02-02T10:16:40.864Z,10.66
2023-02-02T10:19:14.689Z,10.75
2023-02-02T10:21:53.041Z,10.82
2023-02-02T10:24:27.991Z,10.89
2023-02-02T10:26:59.412Z,10.96
2023-02-02T10:29:48.617Z,11.01
2023-02-02T10:32:24.890Z,11.03
2023-02-02T10:35:14.361Z,11.03
2023-02-02T10:37:51.448Z,11.05
2023-02-02T10:40:38.363Z,11.09
2023-02-02T10:43:48.506Z,11.23
2023-02-02T10:46:23.569Z,11.33
2023-02-02T10:49:00.484Z,11.37
2023-02-02T10:51:30.648Z,11.39
2023-02-02T10:54:05.110Z,11.36
2023-02-02T10:56:41.579Z,11.36
2023-02-02T10:59:19.135Z,11.34
2023-02-02T11:01:48.647Z,11.28
2023-02-02T11:04:35.298Z,11.22
2023-02-02T11:07:03.745Z,11.10
2023-02-02T11:09:38.066Z,11.02
2023-02-02T11:12:20.189Z,10.99
2023-02-02T11:14:53.599Z,10.95
2023-02-02T11:17:24.600Z,10.91
2023-02-02T11:19:56.254Z,10.89
2023-02-02T11:22:34.570Z,10.84
2023-02-02T11:25:06.714Z,10.78
2023-02-02T11:27:41.744Z,10.73
2023-02-02T11:30:26.591Z,10.68
2023-02-02T11:32:56.454Z,10.69
2023-02-02T11:35:27.408Z,10.67
2023-02-02T11:38:09.474Z,10.65
2023-02-02T11:40:41.415Z,10.63
2023-02-02T11:43:20.889Z,10.60
2023-02-02T11:45:57.631Z,10.56
2023-02-02T11:48:32.538Z,10.55
2023-02-02T11:51:02.709Z,10.55
2023-02-02T11:53:34.139Z,10.56
2023-02-02T11:56:07.243Z,10.62
2023-02-02T11:58:47.685Z,10.66
2023-02-02T12:01:26.908Z,10.69
2023-02-02T12:03:57.671Z,10.71
2023-02-02T12:06:28.455Z,10.75
2023-02-02T12:09:01.380Z,10.76
2023-02-02T12:11:49.699Z,10.75
2023-02-02T12:14:38.907Z,10.73
2023-02-02T12:17:24.048Z,10.73
2023-02-02T12:20:20.602Z,10.73
2023-02-02T12:23:16.873Z,10.75
2023-02-02T12:26:07.268Z,10.76
2023-02-02T12:29:03.716Z,10.76
2023-02-02T12:31:44.783Z,10.79
2023-02-02T12:34:23.990Z,10.78
2023-02-02T12:37:04.086Z,10.76
2023-02-02T12:39:46.840Z,10.74
2023-02-02T12:42:56.310Z,10.70
2023-02-02T12:45:53.065Z,10.63
2023-02-02T12:48:44.410Z,10.59
2023-02-02T12:51:32.424Z,10.58
2023-02-02T12:54:44.882Z,10.55
2023-02-02T12:57:26.574Z,10.56
2023-02-02T13:00:39.411Z,10.58
2023-02-02T13:03:28.109Z,10.63
2023-02-02T13:06:18.123Z,10.66
2023-02-02T13:08:54.392Z,10.68
2023-02-02T13:11:33.724Z,10.68
2023-02-02T13:14:10.691Z,10.65
2023-02-02T13:16:44.349Z,10.61
2023-02-02T13:19:20.288Z,10.55
2023-02-02T13:21:50.877Z,10.52
2023-02-02T13:24:27.391Z,10.49
2023-02-02T13:26:58.684Z,10.47
2023-02-02T13:29:44.277Z,10.47
2023-02-02T13:32:24.424Z,10.47
2023-02-02T13:34:58.237Z,10.47
2023-02-02T13:37:37.328Z,10.46
2023-02-02T13:40:25.916Z,10.45
2023-02-02T13:43:04.844Z,10.43
2023-02-02T13:45:54.049Z,10.41
2023-02-02T13:48:35.178Z,10.39
2023-02-02T13:51:45.546Z,10.39
2023-02-02T13:55:13.758Z,10.37
2023-02-02T13:58:38.634Z,10.32
2023-02-02T14:01:10.708Z,10.29
2023-02-02T14:03:41.085Z,10.25
2023-02-02T14:06:14.309Z,10.26
2023-02-02T14:08:50.105Z,10.27
2023-02-02T14:11:29.302Z,10.29
2023-02-02T14:14:24.923Z,10.31
2023-02-02T14:16:56.149Z,10.34
2023-02-02T14:19:53.325Z,10.29
2023-02-02T14:22:42.380Z,10.28
2023-02-02T14:26:05.886Z,10.27
2023-02-02T14:28:51.955Z,10.26
2023-02-02T14:31:55.653Z,10.23
2023-02-02T14:34:33.855Z,10.22
2023-02-02T14:37:38.528Z,10.19
2023-02-02T14:40:39.767Z,10.17
2023-02-02T14:43:42.583Z,10.15
2023-02-02T14:46:38.888Z,10.10
2023-02-02T14:49:29.764Z,10.07
2023-02-02T14:52:03.080Z,10.08
2023-02-02T14:54:41.380Z,10.05
2023-02-02T14:57:27.395Z,10.01
2023-02-02T14:59:59.385Z,10.00
2023-02-02T15:02:36.730Z,10.02
2023-02-02T15:05:43.969Z,9.98
2023-02-02T15:08:28.611Z,9.94
2023-02-02T15:11:27.319Z,9.91
2023-02-02T15:14:11.279Z,9.86
2023-02-02T15:16:40.930Z,9.85
2023-02-02T15:19:24.250Z,9.82
2023-02-02T15:21:56.434Z,9.81
2023-02-02T15:24:28.565Z,9.77
2023-02-02T15:27:00.035Z,9.72
2023-02-02T15:29:45.144Z,9.66
2023-02-02T15:32:20.414Z,9.61
2023-02-02T15:34:54.556Z,9.57
2023-02-02T15:37:27.823Z,9.53
2023-02-02T15:40:00.527Z,9.49
2023-02-02T15:42:56.633Z,9.47
2023-02-02T15:45:43.658Z,9.43
2023-02-02T15:48:23.763Z,9.42
2023-02-02T15:50:58.223Z,9.39
2023-02-02T15:53:33.079Z,9.36
2023-02-02T15:56:02.194Z,9.30
2023-02-02T15:58:33.950Z,9.24
2023-02-02T16:01:06.855Z,9.16
2023-02-02T16:03:49.148Z,9.08
2023-02-02T16:06:19.617Z,9.01
2023-02-02T16:08:48.851Z,8.94
2023-02-02T16:11:21.021Z,8.85
2023-02-02T16:14:01.460Z,8.78
2023-02-02T16:16:32.860Z,8.71
2023-02-02T16:19:12.916Z,8.64
2023-02-02T16:21:49.232Z,8.58
2023-02-02T16:24:24.625Z,8.52
2023-02-02T16:26:55.269Z,8.47
2023-02-02T16:29:24.415Z,8.44
2023-02-02T16:31:53.370Z,8.39
2023-02-02T16:34:47.330Z,8.34
2023-02-02T16:37:23.257Z,8.32
2023-02-02T16:39:51.671Z,8.30
2023-02-02T16:42:29.701Z,8.26
2023-02-02T16:44:59.368Z,8.23
2023-02-02T16:47:40.830Z,8.20
2023-02-02T16:50:32.479Z,8.17
2023-02-02T16:53:06.499Z,8.14
2023-02-02T16:55:50.010Z,8.12
2023-02-02T16:58:22.984Z,8.09
2023-02-02T17:01:14.969Z,8.07
2023-02-02T17:03:53.831Z,8.03
2023-02-02T17:06:45.915Z,8.03
2023-02-02T17:09:36.615Z,7.99
2023-02-02T17:12:33.197Z,7.98
2023-02-02T17:15:25.410Z,7.95
2023-02-02T17:17:54.629Z,7.94
2023-02-02T17:20:26.199Z,7.92
2023-02-02T17:23:00.393Z,7.91
2023-02-02T17:25:40.510Z,7.89
2023-02-02T17:28:13.775Z,7.89
2023-02-02T17:30:43.873Z,7.88
2023-02-02T17:33:15.649Z,7.88
2023-02-02T17:35:54.988Z,7.85
2023-02-02T17:38:27.811Z,7.87
2023-02-02T17:41:03.232Z,7.87
2023-02-02T17:43:33.589Z,7.87
2023-02-02T17:46:04.394Z,7.86
2023-02-02T17:48:34.518Z,7.87
2023-02-02T17:51:07.314Z,7.88
2023-02-02T17:53:36.566Z,7.86
2023-02-02T17:56:09.622Z,7.88
2023-02-02T17:58:39.864Z,7.88
2023-02-02T18:01:10.883Z,7.88
2023-02-02T18:03:42.827Z,7.88
2023-02-02T18:06:14.862Z,7.87
2023-02-02T18:08:45.631Z,7.86
2023-02-02T18:11:18.662Z,7.85
2023-02-02T18:13:48.052Z,7.86
2023-02-02T18:16:19.826Z,7.84
2023-02-02T18:18:49.416Z,7.82
2023-02-02T18:21:18.184Z,7.83
2023-02-02T18:23:49.786Z,7.82
2023-02-02T18:26:23.851Z,7.82
2023-02-02T18:28:53.473Z,7.81
2023-02-02T18:31:24.883Z,7.80
2023-02-02T18:33:54.554Z,7.80
2023-02-02T18:36:25.161Z,7.80
2023-02-02T18:38:55.706Z,7.79
2023-02-02T18:41:26.281Z,7.77
2023-02-02T18:43:56.605Z,7.76
2023-02-02T18:46:26.877Z,7.76
2023-02-02T18:48:58.071Z,7.76
2023-02-02T18:51:31.778Z,7.77
2023-02-02T18:54:02.239Z,7.76
2023-02-02T18:56:37.054Z,7.76
2023-02-02T18:59:07.546Z,7.74
2023-02-02T19:01:38.025Z,7.76
2023-02-02T19:04:07.926Z,7.77
2023-02-02T19:06:55.218Z,7.75
2023-02-02T19:09:25.062Z,7.74
2023-02-02T19:11:57.667Z,7.75
2023-02-02T19:14:33.353Z,7.74
2023-02-02T19:17:14.211Z,7.72
2023-02-02T19:19:44.346Z,7.71
2023-02-02T19:22:21.949Z,7.70
2023-02-02T19:24:52.244Z,7.72
2023-02-02T19:27:25.196Z,7.70
2023-02-02T19:30:01.456Z,7.70
2023-02-02T19:32:36.652Z,7.69
2023-02-02T19:35:19.414Z,7.67
2023-02-02T19:37:50.341Z,7.69
2023-02-02T19:40:26.285Z,7.68
2023-02-02T19:43:06.523Z,7.67
2023-02-02T19:45:39.810Z,7.69
2023-02-02T19:48:18.067Z,7.69
2023-02-02T19:50:48.957Z,7.70
2023-02-02T19:53:23.389Z,7.69
2023-02-02T19:55:54.170Z,7.72
2023-02-02T19:58:28.630Z,7.72
2023-02-02T20:00:59.820Z,7.72
2023-02-02T20:03:37.646Z,7.73
2023-02-02T20:06:08.684Z,7.74
2023-02-02T20:08:42.296Z,7.75
2023-02-02T20:11:32.359Z,7.76
2023-02-02T20:14:12.991Z,7.77
2023-02-02T20:16:46.190Z,7.78
2023-02-02T20:19:21.179Z,7.78
2023-02-02T20:21:53.151Z,7.79
2023-02-02T20:24:26.942Z,7.80
2023-02-02T20:27:00.361Z,7.82
2023-02-02T20:29:45.313Z,7.80
2023-02-02T20:32:22.613Z,7.83
2023-02-02T20:34:53.548Z,7.84
2023-02-02T20:37:26.197Z,7.83
2023-02-02T20:39:59.377Z,7.85
2023-02-02T20:42:29.792Z,7.85
2023-02-02T20:45:00.874Z,7.84
2023-02-02T20:47:30.551Z,7.85
2023-02-02T20:50:01.300Z,7.84
2023-02-02T20:52:32.615Z,7.83
2023-02-02T20:55:05.301Z,7.81
2023-02-02T20:57:34.588Z,7.81
2023-02-02T21:00:05.057Z,7.79
2023-02-02T21:02:35.100Z,7.80
2023-02-02T21:05:04.633Z,7.81
2023-02-02T21:07:33.173Z,7.80
2023-02-02T21:10:01.858Z,7.79
2023-02-02T21:12:30.337Z,7.79
2023-02-02T21:14:59.289Z,7.78
2023-02-02T21:17:29.068Z,7.78
2023-02-02T21:19:58.577Z,7.77
2023-02-02T21:22:27.052Z,7.77
2023-02-02T21:24:56.092Z,7.76
2023-02-02T21:27:24.573Z,7.76
2023-02-02T21:29:53.534Z,7.76
2023-02-02T21:32:22.305Z,7.74
2023-02-02T21:34:52.726Z,7.74
2023-02-02T21:37:21.668Z,7.74
2023-02-02T21:39:51.335Z,7.75
2023-02-02T21:42:21.923Z,7.75
2023-02-02T21:44:56.341Z,7.74
2023-02-02T21:47:30.690Z,7.74
2023-02-02T21:50:12.009Z,7.76
2023-02-02T21:52:40.363Z,7.79
2023-02-02T21:55:39.273Z,7.82
2023-02-02T21:58:23.125Z,7.86
2023-02-02T22:00:52.445Z,7.89
2023-02-02T22:03:33.061Z,7.91
2023-02-02T22:06:25.135Z,7.93
2023-02-02T22:09:00.506Z,7.98
2023-02-02T22:11:37.070Z,8.01
2023-02-02T22:14:19.681Z,8.02
2023-02-02T22:16:50.805Z,8.03
2023-02-02T22:19:29.847Z,8.00
2023-02-02T22:22:16.876Z,7.98
2023-02-02T22:24:49.209Z,7.98
2023-02-02T22:27:24.082Z,7.97
2023-02-02T22:30:01.827Z,7.97
2023-02-02T22:32:30.361Z,8.00
2023-02-02T22:34:58.912Z,8.01
2023-02-02T22:37:28.665Z,8.04
2023-02-02T22:39:58.200Z,8.04
2023-02-02T22:42:28.145Z,8.05
2023-02-02T22:44:56.530Z,8.04
2023-02-02T22:47:25.088Z,8.04
2023-02-02T22:49:53.497Z,8.04
2023-02-02T22:52:21.901Z,8.05
2023-02-02T22:54:51.659Z,8.03
2023-02-02T22:57:20.100Z,8.03
2023-02-02T22:59:48.544Z,8.03
2023-02-02T23:02:16.985Z,8.03
2023-02-02T23:04:45.362Z,8.01
2023-02-02T23:07:13.741Z,8.00
2023-02-02T23:09:42.125Z,7.97
2023-02-02T23:12:12.004Z,7.95
2023-02-02T23:14:40.389Z,7.93
2023-02-02T23:17:08.855Z,7.92
2023-02-02T23:19:37.237Z,7.90
2023-02-02T23:22:05.639Z,7.89
2023-02-02T23:24:34.085Z,7.87
2023-02-02T23:27:02.683Z,7.85
2023-02-02T23:29:32.529Z,7.83
2023-02-02T23:32:00.994Z,7.83
2023-02-02T23:34:29.402Z,7.83
2023-02-02T23:36:57.787Z,7.83
2023-02-02T23:39:26.218Z,7.82
2023-02-02T23:41:54.639Z,7.84
2023-02-02T23:44:23.068Z,7.84
2023-02-02T23:46:54.109Z,7.85
2023-02-02T23:49:23.134Z,7.85
2023-02-02T23:51:51.775Z,7.84
2023-02-02T23:54:20.289Z,7.86
2023-02-02T23:56:49.082Z,7.88
2023-02-02T23:59:17.991Z,7.88
